sensor_id;sensor_type;location;lat;lon;timestamp;pressure;altitude;pressure_sealevel;temperature;humidity
12879;BME280;20617;49.476;10.986;2024-02-23T00:01:13;95992.44;;;10.91;100.00
12879;BME280;20617;49.476;10.986;2024-02-23T00:03:14;96015.06;;;10.79;100.00
12879;BME280;20617;49.476;10.986;2024-02-23T00:05:14;96013.03;;;10.83;100.00
12879;BME280;20617;49.476;10.986;2024-02-23T00:07:18;96019.28;;;10.80;100.00
12879;BME280;20617;49.476;10.986;2024-02-23T00:09:22;96035.72;;;10.81;100.00
12879;BME280;20617;49.476;10.986;2024-02-23T00:11:23;96029.84;;;10.68;100.00
12879;BME280;20617;49.476;10.986;2024-02-23T00:13:24;96041.56;;;10.62;100.00
12879;BME280;20617;49.476;10.986;2024-02-23T00:15:24;96037.44;;;10.59;100.00
12879;BME280;20617;49.476;10.986;2024-02-23T00:17:28;96027.75;;;10.50;100.00
12879;BME280;20617;49.476;10.986;2024-02-23T00:19:29;96031.41;;;10.48;100.00
12879;BME280;20617;49.476;10.986;2024-02-23T00:21:30;96027.25;;;10.45;100.00
12879;BME280;20617;49.476;10.986;2024-02-23T00:23:31;96033.75;;;10.51;100.00
12879;BME280;20617;49.476;10.986;2024-02-23T00:25:32;96033.75;;;10.51;100.00
12879;BME280;20617;49.476;10.986;2024-02-23T00:27:32;96029.63;;;10.59;100.00
12879;BME280;20617;49.476;10.986;2024-02-23T00:29:33;96042.28;;;10.41;100.00
12879;BME280;20617;49.476;10.986;2024-02-23T00:31:36;96061.41;;;10.40;100.00
12879;BME280;20617;49.476;10.986;2024-02-23T00:33:40;96064.72;;;10.31;100.00
12879;BME280;20617;49.476;10.986;2024-02-23T00:35:41;96076.19;;;10.29;100.00
12879;BME280;20617;49.476;10.986;2024-02-23T00:37:41;96078.84;;;10.16;100.00
12879;BME280;20617;49.476;10.986;2024-02-23T00:39:42;96103.00;;;10.29;100.00
12879;BME280;20617;49.476;10.986;2024-02-23T00:41:43;96101.75;;;10.11;100.00
12879;BME280;20617;49.476;10.986;2024-02-23T00:43:44;96110.63;;;10.08;100.00
12879;BME280;20617;49.476;10.986;2024-02-23T00:45:45;96118.41;;;10.08;100.00
12879;BME280;20617;49.476;10.986;2024-02-23T00:47:50;96139.91;;;9.99;100.00
12879;BME280;20617;49.476;10.986;2024-02-23T00:49:53;96142.16;;;9.80;100.00
12879;BME280;20617;49.476;10.986;2024-02-23T00:51:54;96142.56;;;9.62;100.00
12879;BME280;20617;49.476;10.986;2024-02-23T00:53:55;96129.56;;;9.62;100.00
12879;BME280;20617;49.476;10.986;2024-02-23T00:55:56;96126.53;;;9.68;100.00
12879;BME280;20617;49.476;10.986;2024-02-23T00:57:57;96140.38;;;9.69;100.00
12879;BME280;20617;49.476;10.986;2024-02-23T00:59:57;96138.63;;;9.57;100.00
12879;BME280;20617;49.476;10.986;2024-02-23T01:01:58;96112.28;;;9.50;100.00
12879;BME280;20617;49.476;10.986;2024-02-23T01:04:00;96131.00;;;9.42;100.00
12879;BME280;20617;49.476;10.986;2024-02-23T01:06:03;96140.69;;;9.40;100.00
12879;BME280;20617;49.476;10.986;2024-02-23T01:08:05;96146.31;;;9.34;100.00
12879;BME280;20617;49.476;10.986;2024-02-23T01:10:07;96144.56;;;9.22;100.00
12879;BME280;20617;49.476;10.986;2024-02-23T01:12:07;96152.25;;;9.23;100.00
12879;BME280;20617;49.476;10.986;2024-02-23T01:14:08;96165.03;;;9.26;100.00
12879;BME280;20617;49.476;10.986;2024-02-23T01:16:09;96164.09;;;9.27;100.00
12879;BME280;20617;49.476;10.986;2024-02-23T01:18:10;96175.75;;;9.09;100.00
12879;BME280;20617;49.476;10.986;2024-02-23T01:20:11;96175.53;;;9.12;100.00
12879;BME280;20617;49.476;10.986;2024-02-23T01:22:14;96172.34;;;9.09;100.00
12879;BME280;20617;49.476;10.986;2024-02-23T01:24:15;96161.13;;;9.08;100.00
12879;BME280;20617;49.476;10.986;2024-02-23T01:26:15;96170.28;;;8.88;100.00
12879;BME280;20617;49.476;10.986;2024-02-23T01:28:16;96169.97;;;8.80;100.00
12879;BME280;20617;49.476;10.986;2024-02-23T01:30:17;96177.97;;;8.77;100.00
12879;BME280;20617;49.476;10.986;2024-02-23T01:32:18;96187.22;;;8.68;100.00
12879;BME280;20617;49.476;10.986;2024-02-23T01:34:18;96188.66;;;8.72;100.00
12879;BME280;20617;49.476;10.986;2024-02-23T01:36:19;96190.53;;;8.70;100.00
12879;BME280;20617;49.476;10.986;2024-02-23T01:38:22;96169.88;;;8.69;100.00
12879;BME280;20617;49.476;10.986;2024-02-23T01:40:23;96184.53;;;8.70;100.00
12879;BME280;20617;49.476;10.986;2024-02-23T01:42:30;96193.66;;;8.63;100.00
12879;BME280;20617;49.476;10.986;2024-02-23T01:44:30;96193.22;;;8.56;100.00
12879;BME280;20617;49.476;10.986;2024-02-23T01:46:31;96194.88;;;8.44;100.00
12879;BME280;20617;49.476;10.986;2024-02-23T01:48:33;96186.56;;;8.52;100.00
12879;BME280;20617;49.476;10.986;2024-02-23T01:50:34;96206.81;;;8.47;100.00
12879;BME280;20617;49.476;10.986;2024-02-23T01:52:35;96201.72;;;8.45;100.00
12879;BME280;20617;49.476;10.986;2024-02-23T01:54:39;96218.94;;;8.46;100.00
12879;BME280;20617;49.476;10.986;2024-02-23T01:56:40;96210.66;;;8.54;100.00
12879;BME280;20617;49.476;10.986;2024-02-23T01:58:40;96221.97;;;8.53;100.00
12879;BME280;20617;49.476;10.986;2024-02-23T02:00:41;96217.69;;;8.52;100.00
12879;BME280;20617;49.476;10.986;2024-02-23T02:02:43;96207.44;;;8.63;100.00
12879;BME280;20617;49.476;10.986;2024-02-23T02:04:43;96216.28;;;8.73;100.00
12879;BME280;20617;49.476;10.986;2024-02-23T02:06:46;96215.53;;;8.71;100.00
12879;BME280;20617;49.476;10.986;2024-02-23T02:08:47;96222.28;;;8.74;100.00
12879;BME280;20617;49.476;10.986;2024-02-23T02:10:53;96216.06;;;8.76;100.00
12879;BME280;20617;49.476;10.986;2024-02-23T02:12:54;96208.06;;;8.67;100.00
12879;BME280;20617;49.476;10.986;2024-02-23T02:14:55;96219.69;;;8.74;100.00
12879;BME280;20617;49.476;10.986;2024-02-23T02:16:55;96218.44;;;8.67;100.00
12879;BME280;20617;49.476;10.986;2024-02-23T02:18:56;96230.78;;;8.63;100.00
12879;BME280;20617;49.476;10.986;2024-02-23T02:20:57;96234.69;;;8.43;100.00
12879;BME280;20617;49.476;10.986;2024-02-23T02:22:58;96239.81;;;8.30;100.00
12879;BME280;20617;49.476;10.986;2024-02-23T02:24:59;96251.72;;;8.20;100.00
12879;BME280;20617;49.476;10.986;2024-02-23T02:27:03;96257.00;;;8.19;100.00
12879;BME280;20617;49.476;10.986;2024-02-23T02:29:05;96263.97;;;8.18;100.00
12879;BME280;20617;49.476;10.986;2024-02-23T02:31:05;96265.53;;;8.21;100.00
12879;BME280;20617;49.476;10.986;2024-02-23T02:33:06;96265.56;;;8.33;100.00
12879;BME280;20617;49.476;10.986;2024-02-23T02:35:07;96265.09;;;8.41;100.00
12879;BME280;20617;49.476;10.986;2024-02-23T02:37:08;96280.25;;;8.47;100.00
12879;BME280;20617;49.476;10.986;2024-02-23T02:39:09;96277.66;;;8.47;100.00
12879;BME280;20617;49.476;10.986;2024-02-23T02:41:11;96273.50;;;8.45;100.00
12879;BME280;20617;49.476;10.986;2024-02-23T02:43:14;96267.81;;;8.25;100.00
12879;BME280;20617;49.476;10.986;2024-02-23T02:45:15;96279.00;;;8.26;100.00
12879;BME280;20617;49.476;10.986;2024-02-23T02:47:16;96293.91;;;8.22;100.00
12879;BME280;20617;49.476;10.986;2024-02-23T02:49:16;96302.00;;;8.18;100.00
12879;BME280;20617;49.476;10.986;2024-02-23T02:51:17;96299.72;;;8.26;100.00
12879;BME280;20617;49.476;10.986;2024-02-23T02:53:20;96297.47;;;8.34;100.00
12879;BME280;20617;49.476;10.986;2024-02-23T02:55:20;96298.09;;;8.37;100.00
12879;BME280;20617;49.476;10.986;2024-02-23T02:57:21;96306.66;;;8.39;100.00
12879;BME280;20617;49.476;10.986;2024-02-23T02:59:25;96295.47;;;8.39;100.00
12879;BME280;20617;49.476;10.986;2024-02-23T03:01:25;96305.88;;;8.37;100.00
12879;BME280;20617;49.476;10.986;2024-02-23T03:03:26;96304.63;;;8.30;100.00
12879;BME280;20617;49.476;10.986;2024-02-23T03:05:27;96302.88;;;8.31;100.00
12879;BME280;20617;49.476;10.986;2024-02-23T03:07:27;96300.13;;;8.20;100.00
12879;BME280;20617;49.476;10.986;2024-02-23T03:09:28;96308.22;;;8.15;100.00
12879;BME280;20617;49.476;10.986;2024-02-23T03:11:29;96315.16;;;8.14;100.00
12879;BME280;20617;49.476;10.986;2024-02-23T03:13:29;96316.06;;;8.13;100.00
12879;BME280;20617;49.476;10.986;2024-02-23T03:15:33;96319.59;;;8.12;100.00
12879;BME280;20617;49.476;10.986;2024-02-23T03:17:34;96331.47;;;8.02;100.00
12879;BME280;20617;49.476;10.986;2024-02-23T03:19:35;96329.63;;;7.90;100.00
12879;BME280;20617;49.476;10.986;2024-02-23T03:21:36;96321.69;;;7.93;100.00
12879;BME280;20617;49.476;10.986;2024-02-23T03:23:37;96312.09;;;7.81;100.00
12879;BME280;20617;49.476;10.986;2024-02-23T03:25:37;96318.72;;;7.85;100.00
12879;BME280;20617;49.476;10.986;2024-02-23T03:27:38;96323.47;;;7.78;100.00
12879;BME280;20617;49.476;10.986;2024-02-23T03:29:39;96321.88;;;7.76;100.00
12879;BME280;20617;49.476;10.986;2024-02-23T03:31:42;96330.28;;;7.79;100.00
12879;BME280;20617;49.476;10.986;2024-02-23T03:33:43;96324.94;;;7.82;100.00
12879;BME280;20617;49.476;10.986;2024-02-23T03:35:44;96328.38;;;7.83;100.00
12879;BME280;20617;49.476;10.986;2024-02-23T03:37:44;96330.41;;;7.78;100.00
12879;BME280;20617;49.476;10.986;2024-02-23T03:39:45;96337.72;;;7.85;100.00
12879;BME280;20617;49.476;10.986;2024-02-23T03:41:46;96340.84;;;7.90;100.00
12879;BME280;20617;49.476;10.986;2024-02-23T03:43:46;96346.31;;;7.86;100.00
12879;BME280;20617;49.476;10.986;2024-02-23T03:45:47;96337.78;;;7.98;100.00
12879;BME280;20617;49.476;10.986;2024-02-23T03:47:50;96331.38;;;8.04;100.00
12879;BME280;20617;49.476;10.986;2024-02-23T03:49:51;96341.09;;;8.00;100.00
12879;BME280;20617;49.476;10.986;2024-02-23T03:51:52;96348.34;;;7.95;100.00
12879;BME280;20617;49.476;10.986;2024-02-23T03:53:53;96348.78;;;7.87;100.00
12879;BME280;20617;49.476;10.986;2024-02-23T03:55:53;96342.66;;;8.03;100.00
12879;BME280;20617;49.476;10.986;2024-02-23T03:57:54;96357.53;;;8.13;100.00
12879;BME280;20617;49.476;10.986;2024-02-23T03:59:55;96355.06;;;8.12;100.00
12879;BME280;20617;49.476;10.986;2024-02-23T04:01:56;96343.59;;;8.02;100.00
12879;BME280;20617;49.476;10.986;2024-02-23T04:03:59;96341.97;;;7.86;100.00
12879;BME280;20617;49.476;10.986;2024-02-23T04:06:00;96339.75;;;7.80;100.00
12879;BME280;20617;49.476;10.986;2024-02-23T04:08:01;96341.97;;;7.86;100.00
12879;BME280;20617;49.476;10.986;2024-02-23T04:10:02;96338.94;;;7.80;100.00
12879;BME280;20617;49.476;10.986;2024-02-23T04:12:03;96337.94;;;7.68;100.00
12879;BME280;20617;49.476;10.986;2024-02-23T04:14:04;96339.94;;;7.63;100.00
12879;BME280;20617;49.476;10.986;2024-02-23T04:16:05;96339.66;;;7.82;100.00
12879;BME280;20617;49.476;10.986;2024-02-23T04:18:06;96346.97;;;7.75;100.00
12879;BME280;20617;49.476;10.986;2024-02-23T04:20:10;96341.59;;;7.78;100.00
12879;BME280;20617;49.476;10.986;2024-02-23T04:22:11;96355.75;;;7.87;100.00
12879;BME280;20617;49.476;10.986;2024-02-23T04:24:12;96355.47;;;7.91;100.00
12879;BME280;20617;49.476;10.986;2024-02-23T04:26:13;96358.19;;;8.03;100.00
12879;BME280;20617;49.476;10.986;2024-02-23T04:28:14;96367.75;;;7.88;100.00
12879;BME280;20617;49.476;10.986;2024-02-23T04:30:14;96364.06;;;7.92;100.00
12879;BME280;20617;49.476;10.986;2024-02-23T04:32:15;96372.66;;;7.92;100.00
12879;BME280;20617;49.476;10.986;2024-02-23T04:34:16;96374.81;;;7.86;100.00
12879;BME280;20617;49.476;10.986;2024-02-23T04:36:21;96368.06;;;7.83;100.00
12879;BME280;20617;49.476;10.986;2024-02-23T04:38:22;96368.50;;;7.90;100.00
12879;BME280;20617;49.476;10.986;2024-02-23T04:40:25;96374.06;;;7.84;100.00
12879;BME280;20617;49.476;10.986;2024-02-23T04:42:26;96381.47;;;7.90;100.00
12879;BME280;20617;49.476;10.986;2024-02-23T04:44:29;96388.03;;;7.81;100.00
12879;BME280;20617;49.476;10.986;2024-02-23T04:46:31;96375.72;;;7.85;100.00
12879;BME280;20617;49.476;10.986;2024-02-23T04:48:31;96377.97;;;7.77;100.00
12879;BME280;20617;49.476;10.986;2024-02-23T04:50:32;96378.69;;;7.79;100.00
12879;BME280;20617;49.476;10.986;2024-02-23T04:52:35;96383.78;;;7.80;100.00
12879;BME280;20617;49.476;10.986;2024-02-23T04:54:36;96397.19;;;7.87;100.00
12879;BME280;20617;49.476;10.986;2024-02-23T04:56:38;96391.00;;;7.89;100.00
12879;BME280;20617;49.476;10.986;2024-02-23T04:58:39;96401.81;;;7.82;100.00
12879;BME280;20617;49.476;10.986;2024-02-23T05:00:40;96414.00;;;7.94;100.00
12879;BME280;20617;49.476;10.986;2024-02-23T05:02:40;96419.38;;;8.05;100.00
12879;BME280;20617;49.476;10.986;2024-02-23T05:04:41;96411.06;;;8.14;100.00
12879;BME280;20617;49.476;10.986;2024-02-23T05:06:42;96408.34;;;8.16;100.00
12879;BME280;20617;49.476;10.986;2024-02-23T05:08:45;96411.13;;;8.13;100.00
12879;BME280;20617;49.476;10.986;2024-02-23T05:10:46;96405.59;;;8.05;100.00
12879;BME280;20617;49.476;10.986;2024-02-23T05:12:47;96401.91;;;8.09;100.00
12879;BME280;20617;49.476;10.986;2024-02-23T05:14:48;96391.97;;;8.15;100.00
12879;BME280;20617;49.476;10.986;2024-02-23T05:16:48;96393.00;;;8.13;100.00
12879;BME280;20617;49.476;10.986;2024-02-23T05:18:49;96406.41;;;7.91;100.00
12879;BME280;20617;49.476;10.986;2024-02-23T05:20:50;96405.97;;;7.99;100.00
12879;BME280;20617;49.476;10.986;2024-02-23T05:22:50;96406.78;;;7.99;100.00
12879;BME280;20617;49.476;10.986;2024-02-23T05:24:54;96415.75;;;8.08;100.00
12879;BME280;20617;49.476;10.986;2024-02-23T05:26:56;96415.50;;;8.12;100.00
12879;BME280;20617;49.476;10.986;2024-02-23T05:28:57;96408.00;;;8.08;100.00
12879;BME280;20617;49.476;10.986;2024-02-23T05:30:57;96416.41;;;8.11;100.00
12879;BME280;20617;49.476;10.986;2024-02-23T05:32:58;96411.88;;;8.15;100.00
12879;BME280;20617;49.476;10.986;2024-02-23T05:34:59;96402.34;;;8.15;100.00
12879;BME280;20617;49.476;10.986;2024-02-23T05:36:59;96397.25;;;8.14;100.00
12879;BME280;20617;49.476;10.986;2024-02-23T05:39:00;96402.78;;;8.22;100.00
12879;BME280;20617;49.476;10.986;2024-02-23T05:41:04;96402.41;;;8.28;100.00
12879;BME280;20617;49.476;10.986;2024-02-23T05:43:04;96402.31;;;8.30;100.00
12879;BME280;20617;49.476;10.986;2024-02-23T05:45:06;96406.56;;;8.31;100.00
12879;BME280;20617;49.476;10.986;2024-02-23T05:47:07;96402.19;;;8.31;100.00
12879;BME280;20617;49.476;10.986;2024-02-23T05:49:08;96400.94;;;8.24;100.00
12879;BME280;20617;49.476;10.986;2024-02-23T05:51:09;96390.84;;;8.20;100.00
12879;BME280;20617;49.476;10.986;2024-02-23T05:53:09;96386.81;;;8.01;100.00
12879;BME280;20617;49.476;10.986;2024-02-23T05:55:10;96396.03;;;8.05;100.00
12879;BME280;20617;49.476;10.986;2024-02-23T05:57:13;96411.72;;;8.04;100.00
12879;BME280;20617;49.476;10.986;2024-02-23T05:59:14;96414.75;;;8.10;100.00
12879;BME280;20617;49.476;10.986;2024-02-23T06:01:15;96415.28;;;8.15;100.00
12879;BME280;20617;49.476;10.986;2024-02-23T06:03:15;96418.66;;;8.03;100.00
12879;BME280;20617;49.476;10.986;2024-02-23T06:05:16;96428.00;;;8.06;100.00
12879;BME280;20617;49.476;10.986;2024-02-23T06:07:17;96427.44;;;8.01;100.00
12879;BME280;20617;49.476;10.986;2024-02-23T06:09:17;96431.81;;;8.00;100.00
12879;BME280;20617;49.476;10.986;2024-02-23T06:11:18;96434.66;;;7.96;100.00
12879;BME280;20617;49.476;10.986;2024-02-23T06:13:22;96428.91;;;7.90;100.00
12879;BME280;20617;49.476;10.986;2024-02-23T06:15:22;96416.78;;;7.91;100.00
12879;BME280;20617;49.476;10.986;2024-02-23T06:17:23;96421.69;;;7.96;100.00
12879;BME280;20617;49.476;10.986;2024-02-23T06:19:25;96436.78;;;8.03;100.00
12879;BME280;20617;49.476;10.986;2024-02-23T06:21:25;96442.41;;;8.10;100.00
12879;BME280;20617;49.476;10.986;2024-02-23T06:23:26;96458.72;;;8.12;100.00
12879;BME280;20617;49.476;10.986;2024-02-23T06:25:27;96456.84;;;8.14;100.00
12879;BME280;20617;49.476;10.986;2024-02-23T06:27:28;96465.19;;;8.19;100.00
12879;BME280;20617;49.476;10.986;2024-02-23T06:29:31;96475.53;;;8.19;100.00
12879;BME280;20617;49.476;10.986;2024-02-23T06:31:32;96478.50;;;8.13;100.00
12879;BME280;20617;49.476;10.986;2024-02-23T06:33:32;96481.66;;;8.04;100.00
12879;BME280;20617;49.476;10.986;2024-02-23T06:35:33;96481.56;;;8.05;100.00
12879;BME280;20617;49.476;10.986;2024-02-23T06:37:34;96473.91;;;8.04;100.00
12879;BME280;20617;49.476;10.986;2024-02-23T06:39:35;96469.28;;;8.09;100.00
12879;BME280;20617;49.476;10.986;2024-02-23T06:41:35;96460.00;;;8.05;100.00
12879;BME280;20617;49.476;10.986;2024-02-23T06:43:36;96467.69;;;8.06;100.00
12879;BME280;20617;49.476;10.986;2024-02-23T06:45:39;96464.63;;;8.00;100.00
12879;BME280;20617;49.476;10.986;2024-02-23T06:47:40;96459.00;;;8.07;100.00
12879;BME280;20617;49.476;10.986;2024-02-23T06:49:41;96469.47;;;8.06;100.00
12879;BME280;20617;49.476;10.986;2024-02-23T06:51:42;96465.75;;;8.10;100.00
12879;BME280;20617;49.476;10.986;2024-02-23T06:53:43;96474.28;;;8.12;100.00
12879;BME280;20617;49.476;10.986;2024-02-23T06:55:43;96485.47;;;8.12;100.00
12879;BME280;20617;49.476;10.986;2024-02-23T06:57:44;96493.25;;;8.12;100.00
12879;BME280;20617;49.476;10.986;2024-02-23T06:59:45;96500.72;;;8.17;100.00
12879;BME280;20617;49.476;10.986;2024-02-23T07:01:52;96499.81;;;8.18;100.00
12879;BME280;20617;49.476;10.986;2024-02-23T07:03:52;96501.38;;;8.21;100.00
12879;BME280;20617;49.476;10.986;2024-02-23T07:05:53;96496.66;;;8.13;100.00
12879;BME280;20617;49.476;10.986;2024-02-23T07:07:54;96504.16;;;8.18;100.00
12879;BME280;20617;49.476;10.986;2024-02-23T07:09:54;96500.63;;;8.19;100.00
12879;BME280;20617;49.476;10.986;2024-02-23T07:11:55;96497.78;;;8.23;100.00
12879;BME280;20617;49.476;10.986;2024-02-23T07:13:56;96490.09;;;8.22;100.00
12879;BME280;20617;49.476;10.986;2024-02-23T07:15:56;96490.00;;;8.23;100.00
12879;BME280;20617;49.476;10.986;2024-02-23T07:18:00;96477.69;;;8.27;100.00
12879;BME280;20617;49.476;10.986;2024-02-23T07:20:01;96469.59;;;8.31;100.00
12879;BME280;20617;49.476;10.986;2024-02-23T07:22:02;96467.69;;;8.35;100.00
12879;BME280;20617;49.476;10.986;2024-02-23T07:24:03;96468.41;;;8.37;100.00
12879;BME280;20617;49.476;10.986;2024-02-23T07:26:03;96472.59;;;8.39;100.00
12879;BME280;20617;49.476;10.986;2024-02-23T07:28:05;96468.91;;;8.44;100.00
12879;BME280;20617;49.476;10.986;2024-02-23T07:30:07;96475.81;;;8.43;100.00
12879;BME280;20617;49.476;10.986;2024-02-23T07:32:08;96485.06;;;8.33;100.00
12879;BME280;20617;49.476;10.986;2024-02-23T07:34:11;96493.34;;;8.39;100.00
12879;BME280;20617;49.476;10.986;2024-02-23T07:36:14;96500.53;;;8.34;100.00
12879;BME280;20617;49.476;10.986;2024-02-23T07:38:14;96499.34;;;8.40;100.00
12879;BME280;20617;49.476;10.986;2024-02-23T07:40:15;96502.59;;;8.44;100.00
12879;BME280;20617;49.476;10.986;2024-02-23T07:42:16;96505.00;;;8.47;100.00
12879;BME280;20617;49.476;10.986;2024-02-23T07:44:16;96508.63;;;8.44;100.00
12879;BME280;20617;49.476;10.986;2024-02-23T07:46:17;96514.19;;;8.52;100.00
12879;BME280;20617;49.476;10.986;2024-02-23T07:48:18;96511.59;;;8.52;100.00
12879;BME280;20617;49.476;10.986;2024-02-23T07:50:21;96516.47;;;8.57;100.00
12879;BME280;20617;49.476;10.986;2024-02-23T07:52:22;96524.44;;;8.54;100.00
12879;BME280;20617;49.476;10.986;2024-02-23T07:54:23;96530.19;;;8.59;100.00
12879;BME280;20617;49.476;10.986;2024-02-23T07:56:23;96528.41;;;8.59;100.00
12879;BME280;20617;49.476;10.986;2024-02-23T07:58:24;96533.16;;;8.53;100.00
12879;BME280;20617;49.476;10.986;2024-02-23T08:00:25;96517.41;;;8.56;100.00
12879;BME280;20617;49.476;10.986;2024-02-23T08:02:25;96518.50;;;8.52;100.00
12879;BME280;20617;49.476;10.986;2024-02-23T08:04:26;96520.06;;;8.54;100.00
12879;BME280;20617;49.476;10.986;2024-02-23T08:06:29;96514.50;;;8.60;100.00
12879;BME280;20617;49.476;10.986;2024-02-23T08:08:30;96523.31;;;8.58;100.00
12879;BME280;20617;49.476;10.986;2024-02-23T08:10:31;96517.97;;;8.61;100.00
12879;BME280;20617;49.476;10.986;2024-02-23T08:12:32;96526.56;;;8.61;100.00
12879;BME280;20617;49.476;10.986;2024-02-23T08:14:32;96518.88;;;8.60;100.00
12879;BME280;20617;49.476;10.986;2024-02-23T08:16:33;96517.03;;;8.48;100.00
12879;BME280;20617;49.476;10.986;2024-02-23T08:18:34;96511.66;;;8.51;100.00
12879;BME280;20617;49.476;10.986;2024-02-23T08:20:34;96510.19;;;8.47;100.00
12879;BME280;20617;49.476;10.986;2024-02-23T08:22:38;96494.91;;;8.42;100.00
12879;BME280;20617;49.476;10.986;2024-02-23T08:24:38;96484.78;;;8.37;100.00
12879;BME280;20617;49.476;10.986;2024-02-23T08:26:39;96487.75;;;8.31;100.00
12879;BME280;20617;49.476;10.986;2024-02-23T08:28:40;96492.59;;;8.23;100.00
12879;BME280;20617;49.476;10.986;2024-02-23T08:30:40;96496.75;;;8.11;100.00
12879;BME280;20617;49.476;10.986;2024-02-23T08:32:42;96501.56;;;8.03;100.00
12879;BME280;20617;49.476;10.986;2024-02-23T08:34:43;96511.38;;;8.12;100.00
12879;BME280;20617;49.476;10.986;2024-02-23T08:36:43;96517.28;;;8.29;100.00
12879;BME280;20617;49.476;10.986;2024-02-23T08:38:47;96517.88;;;8.48;100.00
12879;BME280;20617;49.476;10.986;2024-02-23T08:40:47;96527.59;;;8.59;100.00
12879;BME280;20617;49.476;10.986;2024-02-23T08:42:48;96533.78;;;8.71;100.00
12879;BME280;20617;49.476;10.986;2024-02-23T08:44:49;96525.34;;;8.67;100.00
12879;BME280;20617;49.476;10.986;2024-02-23T08:46:49;96528.47;;;8.72;100.00
12879;BME280;20617;49.476;10.986;2024-02-23T08:48:50;96528.94;;;8.79;100.00
12879;BME280;20617;49.476;10.986;2024-02-23T08:50:51;96537.91;;;8.88;100.00
12879;BME280;20617;49.476;10.986;2024-02-23T08:52:52;96540.66;;;8.99;100.00
12879;BME280;20617;49.476;10.986;2024-02-23T08:54:55;96537.97;;;9.00;100.00
12879;BME280;20617;49.476;10.986;2024-02-23T08:56:56;96542.88;;;9.05;100.00
12879;BME280;20617;49.476;10.986;2024-02-23T08:58:56;96549.31;;;9.12;100.00
12879;BME280;20617;49.476;10.986;2024-02-23T09:00:57;96546.53;;;9.15;100.00
12879;BME280;20617;49.476;10.986;2024-02-23T09:02:58;96543.94;;;9.15;100.00
12879;BME280;20617;49.476;10.986;2024-02-23T09:04:58;96547.66;;;9.11;100.00
12879;BME280;20617;49.476;10.986;2024-02-23T09:06:59;96553.56;;;9.13;100.00
12879;BME280;20617;49.476;10.986;2024-02-23T09:09:00;96558.88;;;9.12;100.00
12879;BME280;20617;49.476;10.986;2024-02-23T09:11:03;96551.72;;;9.15;100.00
12879;BME280;20617;49.476;10.986;2024-02-23T09:13:04;96549.97;;;9.16;100.00
12879;BME280;20617;49.476;10.986;2024-02-23T09:15:05;96548.75;;;9.21;100.00
12879;BME280;20617;49.476;10.986;2024-02-23T09:17:06;96549.06;;;9.17;100.00
12879;BME280;20617;49.476;10.986;2024-02-23T09:19:07;96542.09;;;9.17;100.00
12879;BME280;20617;49.476;10.986;2024-02-23T09:21:08;96553.94;;;9.21;100.00
12879;BME280;20617;49.476;10.986;2024-02-23T09:23:08;96561.53;;;9.24;100.00
12879;BME280;20617;49.476;10.986;2024-02-23T09:25:09;96564.31;;;9.21;100.00
12879;BME280;20617;49.476;10.986;2024-02-23T09:27:12;96567.41;;;9.14;100.00
12879;BME280;20617;49.476;10.986;2024-02-23T09:29:13;96571.75;;;9.13;100.00
12879;BME280;20617;49.476;10.986;2024-02-23T09:31:14;96569.41;;;9.23;100.00
12879;BME280;20617;49.476;10.986;2024-02-23T09:33:15;96566.13;;;9.34;100.00
12879;BME280;20617;49.476;10.986;2024-02-23T09:35:15;96567.88;;;9.33;100.00
12879;BME280;20617;49.476;10.986;2024-02-23T09:37:16;96559.94;;;9.22;100.00
12879;BME280;20617;49.476;10.986;2024-02-23T09:39:17;96553.34;;;9.30;100.00
12879;BME280;20617;49.476;10.986;2024-02-23T09:41:20;96549.09;;;9.29;100.00
12879;BME280;20617;49.476;10.986;2024-02-23T09:43:25;96550.81;;;9.16;100.00
12879;BME280;20617;49.476;10.986;2024-02-23T09:45:28;96559.44;;;9.17;100.00
12879;BME280;20617;49.476;10.986;2024-02-23T09:47:29;96567.03;;;9.20;100.00
12879;BME280;20617;49.476;10.986;2024-02-23T09:49:31;96577.66;;;9.29;100.00
12879;BME280;20617;49.476;10.986;2024-02-23T09:51:33;96584.13;;;9.37;100.00
12879;BME280;20617;49.476;10.986;2024-02-23T09:53:37;96598.34;;;9.31;100.00
12879;BME280;20617;49.476;10.986;2024-02-23T09:55:38;96595.94;;;9.28;100.00
12879;BME280;20617;49.476;10.986;2024-02-23T09:57:40;96600.06;;;9.30;100.00
12879;BME280;20617;49.476;10.986;2024-02-23T09:59:45;96596.44;;;9.33;100.00
12879;BME280;20617;49.476;10.986;2024-02-23T10:01:46;96596.06;;;9.39;100.00
12879;BME280;20617;49.476;10.986;2024-02-23T10:03:47;96599.25;;;9.30;100.00
12879;BME280;20617;49.476;10.986;2024-02-23T10:05:48;96587.22;;;9.29;100.00
12879;BME280;20617;49.476;10.986;2024-02-23T10:07:49;96585.63;;;9.26;100.00
12879;BME280;20617;49.476;10.986;2024-02-23T10:09:49;96599.16;;;9.32;100.00
12879;BME280;20617;49.476;10.986;2024-02-23T10:11:52;96595.81;;;9.29;100.00
12879;BME280;20617;49.476;10.986;2024-02-23T10:13:53;96600.47;;;9.24;100.00
12879;BME280;20617;49.476;10.986;2024-02-23T10:15:56;96595.28;;;9.24;100.00
12879;BME280;20617;49.476;10.986;2024-02-23T10:17:57;96598.63;;;9.26;100.00
12879;BME280;20617;49.476;10.986;2024-02-23T10:19:58;96595.38;;;9.23;100.00
12879;BME280;20617;49.476;10.986;2024-02-23T10:21:59;96591.59;;;9.14;100.00
12879;BME280;20617;49.476;10.986;2024-02-23T10:24:00;96597.78;;;9.26;100.00
12879;BME280;20617;49.476;10.986;2024-02-23T10:26:01;96597.66;;;9.27;100.00
12879;BME280;20617;49.476;10.986;2024-02-23T10:28:01;96596.66;;;9.30;100.00
12879;BME280;20617;49.476;10.986;2024-02-23T10:30:02;96602.34;;;9.22;100.00
12879;BME280;20617;49.476;10.986;2024-02-23T10:32:06;96608.38;;;9.23;100.00
12879;BME280;20617;49.476;10.986;2024-02-23T10:34:08;96606.78;;;9.20;100.00